sensor_id;sensor_type;location;lat;lon;timestamp;pressure;altitude;pressure_sealevel;temperature
45393;BMP280;31129;44.810;10.334;2023-10-19T00:00:40;100130.16;;;12.44
45393;BMP280;31129;44.810;10.334;2023-10-19T00:03:06;100133.91;;;12.53
45393;BMP280;31129;44.810;10.334;2023-10-19T00:05:35;100125.44;;;12.51
45393;BMP280;31129;44.810;10.334;2023-10-19T00:08:03;100133.19;;;12.58
45393;BMP280;31129;44.810;10.334;2023-10-19T00:10:48;100130.69;;;12.54
45393;BMP280;31129;44.810;10.334;2023-10-19T00:13:19;100115.97;;;12.46
45393;BMP280;31129;44.810;10.334;2023-10-19T00:15:45;100119.97;;;12.51
45393;BMP280;31129;44.810;10.334;2023-10-19T00:18:17;100123.19;;;12.49
45393;BMP280;31129;44.810;10.334;2023-10-19T00:20:45;100124.69;;;12.50
45393;BMP280;31129;44.810;10.334;2023-10-19T00:23:11;100115.03;;;12.55
45393;BMP280;31129;44.810;10.334;2023-10-19T00:25:39;100113.50;;;12.54
45393;BMP280;31129;44.810;10.334;2023-10-19T00:28:10;100117.25;;;12.56
45393;BMP280;31129;44.810;10.334;2023-10-19T00:30:40;100120.50;;;12.55
45393;BMP280;31129;44.810;10.334;2023-10-19T00:33:08;100120.97;;;12.53
45393;BMP280;31129;44.810;10.334;2023-10-19T00:35:48;100106.28;;;12.39
45393;BMP280;31129;44.810;10.334;2023-10-19T00:38:24;100094.31;;;12.48
45393;BMP280;31129;44.810;10.334;2023-10-19T00:40:55;100086.88;;;12.43
45393;BMP280;31129;44.810;10.334;2023-10-19T00:43:33;100084.66;;;12.47
45393;BMP280;31129;44.810;10.334;2023-10-19T00:46:07;100083.16;;;12.52
45393;BMP280;31129;44.810;10.334;2023-10-19T00:48:54;100076.19;;;12.51
45393;BMP280;31129;44.810;10.334;2023-10-19T00:51:22;100065.97;;;12.45
45393;BMP280;31129;44.810;10.334;2023-10-19T00:56:41;100063.72;;;12.44
45393;BMP280;31129;44.810;10.334;2023-10-19T00:59:12;100061.50;;;12.42
45393;BMP280;31129;44.810;10.334;2023-10-19T01:01:42;100055.28;;;12.48
45393;BMP280;31129;44.810;10.334;2023-10-19T01:04:15;100048.81;;;12.45
45393;BMP280;31129;44.810;10.334;2023-10-19T01:06:42;100040.13;;;12.41
45393;BMP280;31129;44.810;10.334;2023-10-19T01:09:24;100018.25;;;12.41
45393;BMP280;31129;44.810;10.334;2023-10-19T01:11:52;100018.19;;;12.35
45393;BMP280;31129;44.810;10.334;2023-10-19T01:14:22;100013.75;;;12.43
45393;BMP280;31129;44.810;10.334;2023-10-19T01:16:53;100033.19;;;12.68
45393;BMP280;31129;44.810;10.334;2023-10-19T01:19:23;100037.88;;;12.45
45393;BMP280;31129;44.810;10.334;2023-10-19T01:21:49;100025.41;;;12.33
45393;BMP280;31129;44.810;10.334;2023-10-19T01:24:19;100023.44;;;12.44
45393;BMP280;31129;44.810;10.334;2023-10-19T01:26:53;100015.69;;;12.37
45393;BMP280;31129;44.810;10.334;2023-10-19T01:29:19;100006.25;;;12.38
45393;BMP280;31129;44.810;10.334;2023-10-19T01:31:52;99994.09;;;12.39
45393;BMP280;31129;44.810;10.334;2023-10-19T01:34:41;99990.81;;;12.35
45393;BMP280;31129;44.810;10.334;2023-10-19T01:37:06;99994.59;;;12.49
45393;BMP280;31129;44.810;10.334;2023-10-19T01:39:33;99999.81;;;12.47
45393;BMP280;31129;44.810;10.334;2023-10-19T01:42:04;100005.03;;;12.45
45393;BMP280;31129;44.810;10.334;2023-10-19T01:44:30;100005.53;;;12.49
45393;BMP280;31129;44.810;10.334;2023-10-19T01:46:56;100006.03;;;12.42
45393;BMP280;31129;44.810;10.334;2023-10-19T01:49:22;100003.00;;;12.34
45393;BMP280;31129;44.810;10.334;2023-10-19T01:51:55;99994.81;;;12.29
45393;BMP280;31129;44.810;10.334;2023-10-19T01:54:23;99982.88;;;12.37
45393;BMP280;31129;44.810;10.334;2023-10-19T01:56:54;99971.72;;;12.41
45393;BMP280;31129;44.810;10.334;2023-10-19T01:59:23;99966.47;;;12.37
45393;BMP280;31129;44.810;10.334;2023-10-19T02:01:53;99965.00;;;12.42
45393;BMP280;31129;44.810;10.334;2023-10-19T02:04:20;99954.06;;;12.48
45393;BMP280;31129;44.810;10.334;2023-10-19T02:06:47;99949.56;;;12.50
45393;BMP280;31129;44.810;10.334;2023-10-19T02:09:15;99946.56;;;12.48
45393;BMP280;31129;44.810;10.334;2023-10-19T02:11:44;99944.34;;;12.52
45393;BMP280;31129;44.810;10.334;2023-10-19T02:14:17;99938.41;;;12.59
45393;BMP280;31129;44.810;10.334;2023-10-19T02:16:46;99941.59;;;12.52
45393;BMP280;31129;44.810;10.334;2023-10-19T02:19:22;99943.59;;;12.52
45393;BMP280;31129;44.810;10.334;2023-10-19T02:21:53;99939.63;;;12.47
45393;BMP280;31129;44.810;10.334;2023-10-19T02:24:19;99938.38;;;12.48
45393;BMP280;31129;44.810;10.334;2023-10-19T02:26:47;99936.63;;;12.51
45393;BMP280;31129;44.810;10.334;2023-10-19T02:29:13;99934.66;;;12.40
45393;BMP280;31129;44.810;10.334;2023-10-19T04:21:55;99798.38;;;11.99
45393;BMP280;31129;44.810;10.334;2023-10-19T04:24:21;99805.59;;;11.97
45393;BMP280;31129;44.810;10.334;2023-10-19T04:26:46;99801.38;;;12.01
45393;BMP280;31129;44.810;10.334;2023-10-19T04:29:14;99798.38;;;11.94
45393;BMP280;31129;44.810;10.334;2023-10-19T04:31:42;99806.56;;;11.99
45393;BMP280;31129;44.810;10.334;2023-10-19T04:34:24;99799.16;;;12.11
45393;BMP280;31129;44.810;10.334;2023-10-19T04:36:50;99786.69;;;12.16
45393;BMP280;31129;44.810;10.334;2023-10-19T04:39:16;99794.16;;;12.04
45393;BMP280;31129;44.810;10.334;2023-10-19T04:41:45;99795.91;;;12.01
45393;BMP280;31129;44.810;10.334;2023-10-19T04:44:14;99775.53;;;12.02
45393;BMP280;31129;44.810;10.334;2023-10-19T04:46:41;99774.03;;;12.01
45393;BMP280;31129;44.810;10.334;2023-10-19T04:49:10;99784.47;;;12.03
45393;BMP280;31129;44.810;10.334;2023-10-19T04:51:38;99789.44;;;11.99
45393;BMP280;31129;44.810;10.334;2023-10-19T04:54:07;99786.72;;;12.04
45393;BMP280;31129;44.810;10.334;2023-10-19T04:56:34;99772.53;;;12.06
45393;BMP280;31129;44.810;10.334;2023-10-19T04:59:04;99775.25;;;12.23
45393;BMP280;31129;44.810;10.334;2023-10-19T05:01:30;99775.78;;;12.10
45393;BMP280;31129;44.810;10.334;2023-10-19T05:03:59;99754.66;;;12.05
45393;BMP280;31129;44.810;10.334;2023-10-19T05:06:25;99758.34;;;12.13
45393;BMP280;31129;44.810;10.334;2023-10-19T05:08:51;99762.09;;;12.04
45393;BMP280;31129;44.810;10.334;2023-10-19T05:11:17;99766.34;;;12.11
45393;BMP280;31129;44.810;10.334;2023-10-19T05:13:43;99766.81;;;12.15
45393;BMP280;31129;44.810;10.334;2023-10-19T05:16:09;99753.41;;;12.17
45393;BMP280;31129;44.810;10.334;2023-10-19T05:18:34;99754.41;;;12.08
45393;BMP280;31129;44.810;10.334;2023-10-19T05:21:00;99755.16;;;12.09
45393;BMP280;31129;44.810;10.334;2023-10-19T05:23:27;99762.84;;;12.16
45393;BMP280;31129;44.810;10.334;2023-10-19T05:26:01;99765.81;;;12.29
45393;BMP280;31129;44.810;10.334;2023-10-19T05:28:27;99762.09;;;12.16
45393;BMP280;31129;44.810;10.334;2023-10-19T05:30:53;99756.63;;;12.16
45393;BMP280;31129;44.810;10.334;2023-10-19T05:33:20;99748.19;;;12.25
45393;BMP280;31129;44.810;10.334;2023-10-19T05:35:49;99734.22;;;12.23
45393;BMP280;31129;44.810;10.334;2023-10-19T05:38:16;99738.94;;;12.22
45393;BMP280;31129;44.810;10.334;2023-10-19T05:40:42;99737.22;;;12.19
45393;BMP280;31129;44.810;10.334;2023-10-19T05:43:11;99731.25;;;12.15
45393;BMP280;31129;44.810;10.334;2023-10-19T05:45:40;99724.06;;;12.18
45393;BMP280;31129;44.810;10.334;2023-10-19T05:48:08;99723.03;;;12.21
45393;BMP280;31129;44.810;10.334;2023-10-19T05:50:35;99731.78;;;12.25
45393;BMP280;31129;44.810;10.334;2023-10-19T05:53:01;99735.50;;;12.16
45393;BMP280;31129;44.810;10.334;2023-10-19T05:55:28;99740.44;;;12.23
45393;BMP280;31129;44.810;10.334;2023-10-19T05:57:54;99725.28;;;12.28
45393;BMP280;31129;44.810;10.334;2023-10-19T06:00:20;99731.50;;;12.17
45393;BMP280;31129;44.810;10.334;2023-10-19T06:02:48;99725.31;;;12.17
45393;BMP280;31129;44.810;10.334;2023-10-19T06:05:17;99726.28;;;12.30
45393;BMP280;31129;44.810;10.334;2023-10-19T06:07:47;99733.00;;;12.24
45393;BMP280;31129;44.810;10.334;2023-10-19T06:10:15;99735.50;;;12.16
45393;BMP280;31129;44.810;10.334;2023-10-19T06:12:45;99744.47;;;12.05
45393;BMP280;31129;44.810;10.334;2023-10-19T06:15:11;99739.47;;;12.15
45393;BMP280;31129;44.810;10.334;2023-10-19T06:17:41;99739.69;;;12.23
45393;BMP280;31129;44.810;10.334;2023-10-19T06:20:08;99742.97;;;12.27
45393;BMP280;31129;44.810;10.334;2023-10-19T06:22:48;99754.38;;;12.31
45393;BMP280;31129;44.810;10.334;2023-10-19T06:25:19;99745.16;;;12.28
45393;BMP280;31129;44.810;10.334;2023-10-19T06:27:47;99744.41;;;12.28
45393;BMP280;31129;44.810;10.334;2023-10-19T06:30:14;99752.91;;;12.24
45393;BMP280;31129;44.810;10.334;2023-10-19T06:32:53;99751.16;;;12.16
45393;BMP280;31129;44.810;10.334;2023-10-19T06:35:19;99742.97;;;12.27
45393;BMP280;31129;44.810;10.334;2023-10-19T06:37:46;99745.44;;;12.19
45393;BMP280;31129;44.810;10.334;2023-10-19T06:40:13;99740.22;;;12.16
45393;BMP280;31129;44.810;10.334;2023-10-19T06:42:45;99722.31;;;12.20
45393;BMP280;31129;44.810;10.334;2023-10-19T06:45:12;99725.56;;;12.19
45393;BMP280;31129;44.810;10.334;2023-10-19T06:47:49;99720.56;;;12.23
45393;BMP280;31129;44.810;10.334;2023-10-19T06:50:19;99705.91;;;12.20
45393;BMP280;31129;44.810;10.334;2023-10-19T06:52:46;99710.13;;;12.21
45393;BMP280;31129;44.810;10.334;2023-10-19T06:55:13;99719.06;;;12.22
45393;BMP280;31129;44.810;10.334;2023-10-19T06:57:48;99712.88;;;12.27
45393;BMP280;31129;44.810;10.334;2023-10-19T07:00:19;99715.63;;;12.27
45393;BMP280;31129;44.810;10.334;2023-10-19T07:02:51;99710.84;;;12.27
45393;BMP280;31129;44.810;10.334;2023-10-19T07:05:17;99699.19;;;12.27
45393;BMP280;31129;44.810;10.334;2023-10-19T07:07:45;99703.63;;;12.35
45393;BMP280;31129;44.810;10.334;2023-10-19T07:10:12;99695.41;;;12.35
45393;BMP280;31129;44.810;10.334;2023-10-19T07:12:40;99714.06;;;12.37
45393;BMP280;31129;44.810;10.334;2023-10-19T07:15:07;99709.84;;;12.41
45393;BMP280;31129;44.810;10.334;2023-10-19T07:17:37;99700.13;;;12.35
45393;BMP280;31129;44.810;10.334;2023-10-19T07:20:09;99699.63;;;12.42
45393;BMP280;31129;44.810;10.334;2023-10-19T07:22:48;99678.19;;;12.52
45393;BMP280;31129;44.810;10.334;2023-10-19T07:25:14;99678.94;;;12.52
45393;BMP280;31129;44.810;10.334;2023-10-19T07:27:39;99703.63;;;12.41
45393;BMP280;31129;44.810;10.334;2023-10-19T07:30:11;99712.59;;;12.30
45393;BMP280;31129;44.810;10.334;2023-10-19T07:32:39;99693.63;;;12.49
45393;BMP280;31129;44.810;10.334;2023-10-19T07:35:05;99695.13;;;12.50
45393;BMP280;31129;44.810;10.334;2023-10-19T07:37:31;99689.38;;;12.54
45393;BMP280;31129;44.810;10.334;2023-10-19T07:39:56;99698.84;;;12.53
45393;BMP280;31129;44.810;10.334;2023-10-19T07:42:23;99688.84;;;12.66
45393;BMP280;31129;44.810;10.334;2023-10-19T07:44:49;99675.91;;;12.67
45393;BMP280;31129;44.810;10.334;2023-10-19T07:47:15;99687.34;;;12.71
45393;BMP280;31129;44.810;10.334;2023-10-19T07:49:40;99689.03;;;12.79
45393;BMP280;31129;44.810;10.334;2023-10-19T07:52:07;99706.09;;;12.97
45393;BMP280;31129;44.810;10.334;2023-10-19T07:54:36;99712.22;;;12.73
45393;BMP280;31129;44.810;10.334;2023-10-19T07:57:03;99705.13;;;13.00
45393;BMP280;31129;44.810;10.334;2023-10-19T07:59:34;99705.63;;;12.93
45393;BMP280;31129;44.810;10.334;2023-10-19T08:02:01;99712.88;;;12.90
45393;BMP280;31129;44.810;10.334;2023-10-19T08:04:28;99717.38;;;12.88
45393;BMP280;31129;44.810;10.334;2023-10-19T08:06:54;99709.56;;;13.03
45393;BMP280;31129;44.810;10.334;2023-10-19T08:09:21;99695.13;;;13.08
45393;BMP280;31129;44.810;10.334;2023-10-19T08:11:49;99695.38;;;13.04
45393;BMP280;31129;44.810;10.334;2023-10-19T08:14:14;99693.81;;;13.14
45393;BMP280;31129;44.810;10.334;2023-10-19T08:16:40;99687.31;;;13.17
45393;BMP280;31129;44.810;10.334;2023-10-19T08:19:10;99659.38;;;13.25
45393;BMP280;31129;44.810;10.334;2023-10-19T08:21:37;99650.81;;;13.39
45393;BMP280;31129;44.810;10.334;2023-10-19T08:24:03;99673.97;;;13.38
45393;BMP280;31129;44.810;10.334;2023-10-19T08:26:30;99673.63;;;13.17
45393;BMP280;31129;44.810;10.334;2023-10-19T08:28:56;99658.41;;;13.22
45393;BMP280;31129;44.810;10.334;2023-10-19T08:31:27;99668.41;;;13.14
45393;BMP280;31129;44.810;10.334;2023-10-19T08:33:55;99669.22;;;13.09
45393;BMP280;31129;44.810;10.334;2023-10-19T08:36:22;99665.41;;;13.17
45393;BMP280;31129;44.810;10.334;2023-10-19T08:38:47;99665.44;;;13.12
45393;BMP280;31129;44.810;10.334;2023-10-19T08:41:14;99662.00;;;13.06
45393;BMP280;31129;44.810;10.334;2023-10-19T08:43:40;99657.06;;;12.99
45393;BMP280;31129;44.810;10.334;2023-10-19T08:46:06;99656.03;;;13.07
45393;BMP280;31129;44.810;10.334;2023-10-19T08:48:34;99637.31;;;13.11
45393;BMP280;31129;44.810;10.334;2023-10-19T08:51:03;99640.84;;;13.06
45393;BMP280;31129;44.810;10.334;2023-10-19T08:53:34;99661.56;;;13.02
45393;BMP280;31129;44.810;10.334;2023-10-19T08:56:06;99655.53;;;13.03
45393;BMP280;31129;44.810;10.334;2023-10-19T08:58:44;99649.31;;;13.08
45393;BMP280;31129;44.810;10.334;2023-10-19T09:01:11;99648.78;;;13.15
45393;BMP280;31129;44.810;10.334;2023-10-19T09:03:39;99656.03;;;13.07
45393;BMP280;31129;44.810;10.334;2023-10-19T09:06:10;99627.84;;;13.12
45393;BMP280;31129;44.810;10.334;2023-10-19T09:08:38;99628.34;;;13.11
45393;BMP280;31129;44.810;10.334;2023-10-19T09:11:07;99609.75;;;13.04
45393;BMP280;31129;44.810;10.334;2023-10-19T09:13:57;99604.25;;;13.04
45393;BMP280;31129;44.810;10.334;2023-10-19T09:16:23;99602.34;;;12.93
45393;BMP280;31129;44.810;10.334;2023-10-19T09:18:50;99591.41;;;12.93
45393;BMP280;31129;44.810;10.334;2023-10-19T09:21:18;99587.31;;;13.05
45393;BMP280;31129;44.810;10.334;2023-10-19T09:23:58;99583.75;;;13.16
45393;BMP280;31129;44.810;10.334;2023-10-19T09:26:24;99603.41;;;13.20
45393;BMP280;31129;44.810;10.334;2023-10-19T09:28:51;99597.44;;;13.16
45393;BMP280;31129;44.810;10.334;2023-10-19T09:31:18;99582.88;;;13.32
45393;BMP280;31129;44.810;10.334;2023-10-19T09:33:46;99607.34;;;13.25
45393;BMP280;31129;44.810;10.334;2023-10-19T09:36:16;99639.22;;;13.22
45393;BMP280;31129;44.810;10.334;2023-10-19T09:38:49;99623.03;;;13.24
45393;BMP280;31129;44.810;10.334;2023-10-19T09:41:20;99620.22;;;13.30
45393;BMP280;31129;44.810;10.334;2023-10-19T09:43:50;99619.34;;;13.22
45393;BMP280;31129;44.810;10.334;2023-10-19T09:46:42;99629.59;;;13.15
45393;BMP280;31129;44.810;10.334;2023-10-19T09:49:10;99620.59;;;13.21
45393;BMP280;31129;44.810;10.334;2023-10-19T09:51:39;99602.28;;;13.34
45393;BMP280;31129;44.810;10.334;2023-10-19T09:54:27;99590.72;;;13.41
45393;BMP280;31129;44.810;10.334;2023-10-19T09:57:01;99601.25;;;13.37
45393;BMP280;31129;44.810;10.334;2023-10-19T09:59:41;99605.78;;;13.29
45393;BMP280;31129;44.810;10.334;2023-10-19T10:02:13;99599.06;;;13.30
45393;BMP280;31129;44.810;10.334;2023-10-19T10:04:40;99589.34;;;13.29
45393;BMP280;31129;44.810;10.334;2023-10-19T10:07:08;99579.50;;;13.21
45393;BMP280;31129;44.810;10.334;2023-10-19T10:09:41;99585.66;;;13.27
45393;BMP280;31129;44.810;10.334;2023-10-19T10:12:23;99588.97;;;13.20
45393;BMP280;31129;44.810;10.334;2023-10-19T10:15:00;99572.03;;;13.21
45393;BMP280;31129;44.810;10.334;2023-10-19T10:17:37;99581.66;;;13.28
45393;BMP280;31129;44.810;10.334;2023-10-19T10:20:29;99582.78;;;13.13
45393;BMP280;31129;44.810;10.334;2023-10-19T10:23:21;99584.63;;;13.30
45393;BMP280;31129;44.810;10.334;2023-10-19T10:25:50;99604.44;;;13.11
45393;BMP280;31129;44.810;10.334;2023-10-19T10:28:24;99604.66;;;13.19
45393;BMP280;31129;44.810;10.334;2023-10-19T10:31:12;99592.91;;;13.24
45393;BMP280;31129;44.810;10.334;2023-10-19T10:33:53;99590.28;;;13.37
45393;BMP280;31129;44.810;10.334;2023-10-19T10:36:25;99597.56;;;13.29
45393;BMP280;31129;44.810;10.334;2023-10-19T10:39:01;99576.94;;;13.28
45393;BMP280;31129;44.810;10.334;2023-10-19T10:41:30;99567.50;;;13.24
45393;BMP280;31129;44.810;10.334;2023-10-19T10:43:58;99566.63;;;13.15
45393;BMP280;31129;44.810;10.334;2023-10-19T10:46:25;99567.56;;;13.18
45393;BMP280;31129;44.810;10.334;2023-10-19T10:48:51;99559.84;;;13.16
45393;BMP280;31129;44.810;10.334;2023-10-19T10:51:25;99533.75;;;13.15
45393;BMP280;31129;44.810;10.334;2023-10-19T10:53:52;99521.25;;;13.20
45393;BMP280;31129;44.810;10.334;2023-10-19T10:56:22;99517.38;;;13.29
45393;BMP280;31129;44.810;10.334;2023-10-19T10:58:48;99518.94;;;13.24
45393;BMP280;31129;44.810;10.334;2023-10-19T11:01:15;99509.91;;;13.29
45393;BMP280;31129;44.810;10.334;2023-10-19T11:03:41;99521.69;;;13.24
45393;BMP280;31129;44.810;10.334;2023-10-19T11:06:09;99517.19;;;13.27
45393;BMP280;31129;44.810;10.334;2023-10-19T11:08:35;99511.19;;;13.28
45393;BMP280;31129;44.810;10.334;2023-10-19T11:11:06;99502.81;;;13.21
45393;BMP280;31129;44.810;10.334;2023-10-19T11:13:32;99500.22;;;13.28
45393;BMP280;31129;44.810;10.334;2023-10-19T11:18:54;99506.63;;;13.36
45393;BMP280;31129;44.810;10.334;2023-10-19T11:21:19;99516.09;;;13.35
45393;BMP280;31129;44.810;10.334;2023-10-19T11:23:45;99523.28;;;13.38
45393;BMP280;31129;44.810;10.334;2023-10-19T11:26:13;99502.13;;;13.39
45393;BMP280;31129;44.810;10.334;2023-10-19T11:28:40;99489.59;;;13.43
45393;BMP280;31129;44.810;10.334;2023-10-19T11:31:22;99474.75;;;13.58
45393;BMP280;31129;44.810;10.334;2023-10-19T11:33:50;99476.69;;;13.63
45393;BMP280;31129;44.810;10.334;2023-10-19T11:36:17;99482.31;;;13.70
45393;BMP280;31129;44.810;10.334;2023-10-19T11:38:44;99488.44;;;13.58
45393;BMP280;31129;44.810;10.334;2023-10-19T11:41:11;99484.97;;;13.57
45393;BMP280;31129;44.810;10.334;2023-10-19T11:43:43;99459.50;;;13.62
45393;BMP280;31129;44.810;10.334;2023-10-19T11:46:09;99464.56;;;13.77
45393;BMP280;31129;44.810;10.334;2023-10-19T11:48:37;99461.66;;;13.69
45393;BMP280;31129;44.810;10.334;2023-10-19T11:51:05;99456.75;;;13.62
45393;BMP280;31129;44.810;10.334;2023-10-19T11:53:36;99450.03;;;13.63
45393;BMP280;31129;44.810;10.334;2023-10-19T11:56:07;99453.19;;;13.67
45393;BMP280;31129;44.810;10.334;2023-10-19T11:58:33;99456.53;;;13.60
45393;BMP280;31129;44.810;10.334;2023-10-19T12:01:18;99460.00;;;13.61
45393;BMP280;31129;44.810;10.334;2023-10-19T12:03:43;99468.25;;;13.61
45393;BMP280;31129;44.810;10.334;2023-10-19T12:06:12;99457.97;;;13.67
45393;BMP280;31129;44.810;10.334;2023-10-19T12:08:39;99455.88;;;13.73
45393;BMP280;31129;44.810;10.334;2023-10-19T12:11:10;99475.88;;;13.68
45393;BMP280;31129;44.810;10.334;2023-10-19T12:13:45;99465.34;;;13.53
45393;BMP280;31129;44.810;10.334;2023-10-19T12:16:12;99461.41;;;13.67
45393;BMP280;31129;44.810;10.334;2023-10-19T12:18:39;99462.75;;;13.61
45393;BMP280;31129;44.810;10.334;2023-10-19T12:21:04;99459.41;;;13.49
45393;BMP280;31129;44.810;10.334;2023-10-19T12:23:33;99456.91;;;13.51
45393;BMP280;31129;44.810;10.334;2023-10-19T12:25:59;99464.44;;;13.45
45393;BMP280;31129;44.810;10.334;2023-10-19T12:28:59;99449.41;;;13.51
45393;BMP280;31129;44.810;10.334;2023-10-19T12:31:24;99463.94;;;13.46
45393;BMP280;31129;44.810;10.334;2023-10-19T12:33:51;99452.50;;;13.42
45393;BMP280;31129;44.810;10.334;2023-10-19T12:36:16;99420.03;;;13.52
45393;BMP280;31129;44.810;10.334;2023-10-19T12:38:56;99403.22;;;13.61
45393;BMP280;31129;44.810;10.334;2023-10-19T12:41:23;99402.75;;;13.76
45393;BMP280;31129;44.810;10.334;2023-10-19T12:43:55;99400.25;;;13.78
45393;BMP280;31129;44.810;10.334;2023-10-19T12:46:26;99420.25;;;13.92
45393;BMP280;31129;44.810;10.334;2023-10-19T12:48:56;99431.22;;;13.92
45393;BMP280;31129;44.810;10.334;2023-10-19T12:51:23;99432.09;;;13.81
45393;BMP280;31129;44.810;10.334;2023-10-19T12:53:53;99422.22;;;13.91
45393;BMP280;31129;44.810;10.334;2023-10-19T12:56:19;99418.69;;;13.77
45393;BMP280;31129;44.810;10.334;2023-10-19T12:58:45;99397.56;;;13.91
45393;BMP280;31129;44.810;10.334;2023-10-19T13:01:11;99414.44;;;13.95
45393;BMP280;31129;44.810;10.334;2023-10-19T13:03:45;99417.53;;;13.86
45393;BMP280;31129;44.810;10.334;2023-10-19T13:06:12;99423.50;;;13.90
45393;BMP280;31129;44.810;10.334;2023-10-19T13:08:38;99426.84;;;13.83
45393;BMP280;31129;44.810;10.334;2023-10-19T13:11:06;99434.75;;;13.86
45393;BMP280;31129;44.810;10.334;2023-10-19T13:13:32;99424.31;;;13.85
45393;BMP280;31129;44.810;10.334;2023-10-19T13:15:58;99406.53;;;13.92
45393;BMP280;31129;44.810;10.334;2023-10-19T13:18:25;99402.56;;;14.06
45393;BMP280;31129;44.810;10.334;2023-10-19T13:20:55;99404.59;;;14.18
45393;BMP280;31129;44.810;10.334;2023-10-19T13:23:22;99413.50;;;14.24
45393;BMP280;31129;44.810;10.334;2023-10-19T13:25:48;99398.19;;;14.16
45393;BMP280;31129;44.810;10.334;2023-10-19T13:28:23;99388.47;;;14.15
45393;BMP280;31129;44.810;10.334;2023-10-19T13:30:52;99400.72;;;14.14
45393;BMP280;31129;44.810;10.334;2023-10-19T13:33:23;99413.72;;;14.26
45393;BMP280;31129;44.810;10.334;2023-10-19T13:35:52;99410.59;;;14.04
45393;BMP280;31129;44.810;10.334;2023-10-19T13:38:18;99400.22;;;13.97
45393;BMP280;31129;44.810;10.334;2023-10-19T13:40:48;99403.09;;;14.04
45393;BMP280;31129;44.810;10.334;2023-10-19T13:43:16;99396.56;;;14.07
45393;BMP280;31129;44.810;10.334;2023-10-19T13:45:44;99394.88;;;14.17
45393;BMP280;31129;44.810;10.334;2023-10-19T13:48:11;99395.63;;;14.18
45393;BMP280;31129;44.810;10.334;2023-10-19T13:50:45;99389.34;;;14.36
45393;BMP280;31129;44.810;10.334;2023-10-19T13:53:17;99394.09;;;14.22
45393;BMP280;31129;44.810;10.334;2023-10-19T13:55:43;99392.00;;;14.28
45393;BMP280;31129;44.810;10.334;2023-10-19T13:58:08;99389.97;;;14.29
45393;BMP280;31129;44.810;10.334;2023-10-19T14:00:35;99387.78;;;14.27
45393;BMP280;31129;44.810;10.334;2023-10-19T14:03:06;99387.03;;;14.27
45393;BMP280;31129;44.810;10.334;2023-10-19T14:05:36;99370.84;;;14.10
45393;BMP280;31129;44.810;10.334;2023-10-19T14:08:06;99368.16;;;14.05
45393;BMP280;31129;44.810;10.334;2023-10-19T14:10:33;99360.72;;;14.18
45393;BMP280;31129;44.810;10.334;2023-10-19T14:12:59;99346.81;;;14.16
45393;BMP280;31129;44.810;10.334;2023-10-19T14:15:24;99350.91;;;14.10
45393;BMP280;31129;44.810;10.334;2023-10-19T14:17:57;99341.41;;;14.11
45393;BMP280;31129;44.810;10.334;2023-10-19T14:20:28;99342.97;;;14.06
45393;BMP280;31129;44.810;10.334;2023-10-19T14:22:54;99348.75;;;14.03
45393;BMP280;31129;44.810;10.334;2023-10-19T14:25:21;99324.38;;;13.99
45393;BMP280;31129;44.810;10.334;2023-10-19T14:27:51;99320.19;;;13.98
45393;BMP280;31129;44.810;10.334;2023-10-19T14:30:23;99303.09;;;13.92
45393;BMP280;31129;44.810;10.334;2023-10-19T14:32:49;99309.81;;;13.91
45393;BMP280;31129;44.810;10.334;2023-10-19T14:35:17;99296.66;;;14.03
45393;BMP280;31129;44.810;10.334;2023-10-19T14:37:47;99293.28;;;13.97
45393;BMP280;31129;44.810;10.334;2023-10-19T14:40:16;99301.97;;;13.82
45393;BMP280;31129;44.810;10.334;2023-10-19T14:42:42;99296.19;;;13.85
45393;BMP280;31129;44.810;10.334;2023-10-19T14:45:09;99309.16;;;13.85
45393;BMP280;31129;44.810;10.334;2023-10-19T14:47:39;99312.06;;;13.74
45393;BMP280;31129;44.810;10.334;2023-10-19T14:50:10;99288.28;;;13.82
45393;BMP280;31129;44.810;10.334;2023-10-19T14:52:42;99253.38;;;13.82
45393;BMP280;31129;44.810;10.334;2023-10-19T14:55:10;99244.13;;;13.85
45393;BMP280;31129;44.810;10.334;2023-10-19T14:57:37;99239.47;;;13.94
45393;BMP280;31129;44.810;10.334;2023-10-19T15:00:04;99249.06;;;13.87
45393;BMP280;31129;44.810;10.334;2023-10-19T15:02:49;99244.44;;;13.95
45393;BMP280;31129;44.810;10.334;2023-10-19T15:05:20;99263.41;;;13.93
45393;BMP280;31129;44.810;10.334;2023-10-19T15:07:50;99248.31;;;13.86
45393;BMP280;31129;44.810;10.334;2023-10-19T15:10:25;99237.34;;;13.86
45393;BMP280;31129;44.810;10.334;2023-10-19T15:12:51;99236.81;;;13.88
45393;BMP280;31129;44.810;10.334;2023-10-19T15:15:18;99230.44;;;14.12
45393;BMP280;31129;44.810;10.334;2023-10-19T15:17:44;99218.06;;;14.05
45393;BMP280;31129;44.810;10.334;2023-10-19T15:20:14;99211.94;;;13.99
45393;BMP280;31129;44.810;10.334;2023-10-19T15:22:44;99207.22;;;14.00
45393;BMP280;31129;44.810;10.334;2023-10-19T15:25:11;99218.19;;;14.00
45393;BMP280;31129;44.810;10.334;2023-10-19T15:27:42;99213.88;;;14.04
45393;BMP280;31129;44.810;10.334;2023-10-19T15:30:10;99225.28;;;14.08
45393;BMP280;31129;44.810;10.334;2023-10-19T15:32:37;99233.38;;;14.01
45393;BMP280;31129;44.810;10.334;2023-10-19T15:35:03;99233.88;;;13.99
45393;BMP280;31129;44.810;10.334;2023-10-19T15:37:29;99229.69;;;13.98
45393;BMP280;31129;44.810;10.334;2023-10-19T15:39:55;99232.22;;;13.96
45393;BMP280;31129;44.810;10.334;2023-10-19T15:42:21;99225.16;;;14.01
45393;BMP280;31129;44.810;10.334;2023-10-19T15:44:49;99231.16;;;13.99
45393;BMP280;31129;44.810;10.334;2023-10-19T15:47:16;99234.44;;;13.98
45393;BMP280;31129;44.810;10.334;2023-10-19T15:49:52;99206.41;;;13.92
45393;BMP280;31129;44.810;10.334;2023-10-19T15:52:25;99204.38;;;13.92
45393;BMP280;31129;44.810;10.334;2023-10-19T15:54:52;99189.16;;;13.91
45393;BMP280;31129;44.810;10.334;2023-10-19T15:57:18;99195.63;;;13.94
45393;BMP280;31129;44.810;10.334;2023-10-19T15:59:44;99202.06;;;13.96
45393;BMP280;31129;44.810;10.334;2023-10-19T16:02:10;99214.06;;;13.93